OERF

Details ICAO OERF (RAH)
Name RAFHA
Region Saudi Arabia
Timezone Asia/Riyadh (UTC+3.0)
Plans Departing 1
Arriving 2
Stats Elevation 1,474 ft / 449 m (AMSL)
Location 29.626345° 43.490722°
Runways 1
Magnetic Variation 4.061° E
Sunrise 2017-12-17 03:56:02 UTC / 2017-12-17 06:56:02 Local
Sunset 2017-12-17 14:10:54 UTC / 2017-12-17 17:10:54 Local
Advertisement - Login to hide

Runways

ID Width Length Bearing (true) Bearing (mag) Surface Threshold Offset Overrun Length
11 147 ft / 45 m 9,820 ft / 2,993 m 113.53° 109.47° Asphalt 0 ft / 0 m 198 ft / 60 m
29 147 ft / 45 m 9,820 ft / 2,993 m 293.54° 289.48° Asphalt 0 ft / 0 m 198 ft / 60 m

Map

Weather


0- 5 10 15 20 25 30 35+ Temperature / ° C

Clouds and Precipitation
Forecast for 2017-12-17 00:00 UTC. Updated an hour ago

Ground ~20,000 ft ~40,000 ft Winds

METAR

OERF 170000Z 00000KT CAVOK 05/M01 Q1024

TAF

TAF OERF 162300Z 1700/1806 VRB03KT 7000 FEW040 SCT100 BECMG 1706/1708 04012KT

Frequencies

Unicom 122.80 MHz CTAF
Warning: Do not use this data for real-world aviation or navigation. No guarantee of current accuracy is given.